You are listening to:
YSSY Director (Both) - Sydney, New South Wales, Australia

YSSY 140930Z 03008KT CAVOK 20/10 Q1011 FM0930 03010KT 8000 FU NSC

If stream does not start automatically press the play button